sensor_id;sensor_type;location;lat;lon;timestamp;temperature;humidity
8188;DHT22;4135;49.184;9.722;2022-08-01T00:01:38;24.60;52.00
8188;DHT22;4135;49.184;9.722;2022-08-01T00:04:07;24.60;52.00
8188;DHT22;4135;49.184;9.722;2022-08-01T00:06:37;24.60;52.00
8188;DHT22;4135;49.184;9.722;2022-08-01T00:09:07;24.60;52.00
8188;DHT22;4135;49.184;9.722;2022-08-01T00:11:36;24.60;52.10
8188;DHT22;4135;49.184;9.722;2022-08-01T00:14:06;24.60;52.10
8188;DHT22;4135;49.184;9.722;2022-08-01T00:16:36;24.60;52.10
8188;DHT22;4135;49.184;9.722;2022-08-01T00:19:06;24.60;52.20
8188;DHT22;4135;49.184;9.722;2022-08-01T00:21:36;24.60;52.20
8188;DHT22;4135;49.184;9.722;2022-08-01T00:24:06;24.60;52.20
8188;DHT22;4135;49.184;9.722;2022-08-01T00:26:35;24.60;52.30
8188;DHT22;4135;49.184;9.722;2022-08-01T00:29:05;24.60;52.30
8188;DHT22;4135;49.184;9.722;2022-08-01T00:31:34;24.60;52.30
8188;DHT22;4135;49.184;9.722;2022-08-01T00:34:04;24.60;52.30
8188;DHT22;4135;49.184;9.722;2022-08-01T00:36:33;24.60;52.40
8188;DHT22;4135;49.184;9.722;2022-08-01T00:39:03;24.60;52.40
8188;DHT22;4135;49.184;9.722;2022-08-01T00:41:32;24.60;52.40
8188;DHT22;4135;49.184;9.722;2022-08-01T00:44:04;24.60;52.40
8188;DHT22;4135;49.184;9.722;2022-08-01T00:46:34;24.60;52.40
8188;DHT22;4135;49.184;9.722;2022-08-01T00:49:04;24.50;52.40
8188;DHT22;4135;49.184;9.722;2022-08-01T00:51:33;24.60;52.50
8188;DHT22;4135;49.184;9.722;2022-08-01T00:54:03;24.50;52.40
8188;DHT22;4135;49.184;9.722;2022-08-01T00:56:33;24.50;52.50
8188;DHT22;4135;49.184;9.722;2022-08-01T00:59:03;24.50;52.50
8188;DHT22;4135;49.184;9.722;2022-08-01T01:01:33;24.50;52.50
8188;DHT22;4135;49.184;9.722;2022-08-01T01:04:02;24.60;52.50
8188;DHT22;4135;49.184;9.722;2022-08-01T01:06:45;24.60;52.50
8188;DHT22;4135;49.184;9.722;2022-08-01T01:09:35;24.50;53.10
8188;DHT22;4135;49.184;9.722;2022-08-01T01:12:19;24.40;53.10
8188;DHT22;4135;49.184;9.722;2022-08-01T01:15:04;24.40;53.10
8188;DHT22;4135;49.184;9.722;2022-08-01T01:17:46;24.30;53.00
8188;DHT22;4135;49.184;9.722;2022-08-01T01:20:19;24.30;53.00
8188;DHT22;4135;49.184;9.722;2022-08-01T01:31:02;24.20;53.00
8188;DHT22;4135;49.184;9.722;2022-08-01T01:33:36;24.20;53.00
8188;DHT22;4135;49.184;9.722;2022-08-01T01:36:09;24.20;53.00
8188;DHT22;4135;49.184;9.722;2022-08-01T01:38:43;24.20;53.00
8188;DHT22;4135;49.184;9.722;2022-08-01T01:41:16;24.20;53.00
8188;DHT22;4135;49.184;9.722;2022-08-01T01:43:46;24.20;53.10
8188;DHT22;4135;49.184;9.722;2022-08-01T01:46:20;24.20;53.00
8188;DHT22;4135;49.184;9.722;2022-08-01T01:48:54;24.20;53.00
8188;DHT22;4135;49.184;9.722;2022-08-01T01:51:25;24.10;53.10
8188;DHT22;4135;49.184;9.722;2022-08-01T01:53:57;24.10;53.10
8188;DHT22;4135;49.184;9.722;2022-08-01T01:56:29;24.10;53.10
8188;DHT22;4135;49.184;9.722;2022-08-01T01:59:02;24.00;53.20
8188;DHT22;4135;49.184;9.722;2022-08-01T02:01:32;24.00;53.20
8188;DHT22;4135;49.184;9.722;2022-08-01T02:04:02;24.00;53.30
8188;DHT22;4135;49.184;9.722;2022-08-01T02:06:33;24.00;53.30
8188;DHT22;4135;49.184;9.722;2022-08-01T02:09:03;24.00;53.40
8188;DHT22;4135;49.184;9.722;2022-08-01T02:11:36;24.00;53.40
8188;DHT22;4135;49.184;9.722;2022-08-01T02:14:07;24.00;53.40
8188;DHT22;4135;49.184;9.722;2022-08-01T02:16:40;23.90;53.40
8188;DHT22;4135;49.184;9.722;2022-08-01T02:19:11;23.90;53.50
8188;DHT22;4135;49.184;9.722;2022-08-01T02:21:57;23.80;53.60
8188;DHT22;4135;49.184;9.722;2022-08-01T02:24:56;23.80;53.70
8188;DHT22;4135;49.184;9.722;2022-08-01T02:27:33;23.80;53.80
8188;DHT22;4135;49.184;9.722;2022-08-01T02:30:05;23.80;54.60
8188;DHT22;4135;49.184;9.722;2022-08-01T02:33:04;23.70;53.90
8188;DHT22;4135;49.184;9.722;2022-08-01T02:35:38;23.70;54.10
8188;DHT22;4135;49.184;9.722;2022-08-01T02:38:11;23.70;54.10
8188;DHT22;4135;49.184;9.722;2022-08-01T02:40:45;23.70;54.20
8188;DHT22;4135;49.184;9.722;2022-08-01T02:43:20;23.60;54.30
8188;DHT22;4135;49.184;9.722;2022-08-01T02:45:53;23.60;54.40
8188;DHT22;4135;49.184;9.722;2022-08-01T02:48:25;23.60;54.50
8188;DHT22;4135;49.184;9.722;2022-08-01T02:50:58;23.60;54.60
8188;DHT22;4135;49.184;9.722;2022-08-01T02:53:34;23.60;54.60
8188;DHT22;4135;49.184;9.722;2022-08-01T02:56:08;23.60;54.70
8188;DHT22;4135;49.184;9.722;2022-08-01T02:58:38;23.60;54.80
8188;DHT22;4135;49.184;9.722;2022-08-01T03:01:09;23.60;55.00
8188;DHT22;4135;49.184;9.722;2022-08-01T03:03:39;23.60;55.00
8188;DHT22;4135;49.184;9.722;2022-08-01T03:06:10;23.60;55.10
8188;DHT22;4135;49.184;9.722;2022-08-01T03:08:41;23.60;55.20
8188;DHT22;4135;49.184;9.722;2022-08-01T03:11:12;23.60;55.20
8188;DHT22;4135;49.184;9.722;2022-08-01T03:13:44;23.60;55.20
8188;DHT22;4135;49.184;9.722;2022-08-01T03:16:16;23.60;55.20
8188;DHT22;4135;49.184;9.722;2022-08-01T03:18:48;23.60;55.30
8188;DHT22;4135;49.184;9.722;2022-08-01T03:21:20;23.60;55.40
8188;DHT22;4135;49.184;9.722;2022-08-01T03:23:51;23.50;55.50
8188;DHT22;4135;49.184;9.722;2022-08-01T03:26:28;23.50;55.60
8188;DHT22;4135;49.184;9.722;2022-08-01T03:29:03;23.40;55.60
8188;DHT22;4135;49.184;9.722;2022-08-01T03:31:37;23.40;55.80
8188;DHT22;4135;49.184;9.722;2022-08-01T03:34:07;23.40;55.90
8188;DHT22;4135;49.184;9.722;2022-08-01T03:36:46;23.40;56.00
8188;DHT22;4135;49.184;9.722;2022-08-01T03:39:17;23.40;56.10
8188;DHT22;4135;49.184;9.722;2022-08-01T03:41:51;23.40;56.10
8188;DHT22;4135;49.184;9.722;2022-08-01T03:44:26;23.40;56.80
8188;DHT22;4135;49.184;9.722;2022-08-01T03:47:00;23.40;56.20
8188;DHT22;4135;49.184;9.722;2022-08-01T03:49:34;23.40;56.30
8188;DHT22;4135;49.184;9.722;2022-08-01T03:52:07;23.40;57.10
8188;DHT22;4135;49.184;9.722;2022-08-01T03:54:40;23.40;56.50
8188;DHT22;4135;49.184;9.722;2022-08-01T03:57:10;23.40;56.50
8188;DHT22;4135;49.184;9.722;2022-08-01T03:59:40;23.40;56.50
8188;DHT22;4135;49.184;9.722;2022-08-01T04:02:11;23.40;56.50
8188;DHT22;4135;49.184;9.722;2022-08-01T04:04:43;23.40;56.70
8188;DHT22;4135;49.184;9.722;2022-08-01T04:07:27;23.40;56.70
8188;DHT22;4135;49.184;9.722;2022-08-01T04:09:56;23.40;56.80
8188;DHT22;4135;49.184;9.722;2022-08-01T04:12:26;23.30;56.80
8188;DHT22;4135;49.184;9.722;2022-08-01T04:14:56;23.30;57.00
8188;DHT22;4135;49.184;9.722;2022-08-01T04:17:25;23.30;57.20
8188;DHT22;4135;49.184;9.722;2022-08-01T04:19:55;23.30;57.20
8188;DHT22;4135;49.184;9.722;2022-08-01T04:22:24;23.20;57.40
8188;DHT22;4135;49.184;9.722;2022-08-01T04:24:55;23.20;57.50
8188;DHT22;4135;49.184;9.722;2022-08-01T04:27:32;23.20;57.60
8188;DHT22;4135;49.184;9.722;2022-08-01T04:30:06;23.20;57.80
8188;DHT22;4135;49.184;9.722;2022-08-01T04:32:38;23.20;57.90
8188;DHT22;4135;49.184;9.722;2022-08-01T04:35:11;23.20;58.00
8188;DHT22;4135;49.184;9.722;2022-08-01T04:37:43;23.30;58.00
8188;DHT22;4135;49.184;9.722;2022-08-01T04:40:14;23.30;58.10
8188;DHT22;4135;49.184;9.722;2022-08-01T04:42:46;23.30;58.20
8188;DHT22;4135;49.184;9.722;2022-08-01T04:45:18;23.30;58.20
8188;DHT22;4135;49.184;9.722;2022-08-01T04:47:49;23.30;58.30
8188;DHT22;4135;49.184;9.722;2022-08-01T04:50:19;23.30;58.40
8188;DHT22;4135;49.184;9.722;2022-08-01T04:52:51;23.30;58.50
8188;DHT22;4135;49.184;9.722;2022-08-01T04:55:20;23.40;58.70
8188;DHT22;4135;49.184;9.722;2022-08-01T04:57:50;23.40;59.30
8188;DHT22;4135;49.184;9.722;2022-08-01T05:00:20;23.40;58.80
8188;DHT22;4135;49.184;9.722;2022-08-01T05:02:49;23.40;58.90
8188;DHT22;4135;49.184;9.722;2022-08-01T05:05:19;23.40;59.00
8188;DHT22;4135;49.184;9.722;2022-08-01T05:07:50;23.40;59.00
8188;DHT22;4135;49.184;9.722;2022-08-01T05:10:19;23.50;59.00
8188;DHT22;4135;49.184;9.722;2022-08-01T05:12:49;23.50;59.20
8188;DHT22;4135;49.184;9.722;2022-08-01T05:15:18;23.50;59.20
8188;DHT22;4135;49.184;9.722;2022-08-01T05:17:48;23.50;59.20
8188;DHT22;4135;49.184;9.722;2022-08-01T05:20:18;23.60;59.50
8188;DHT22;4135;49.184;9.722;2022-08-01T05:22:47;23.50;59.50
8188;DHT22;4135;49.184;9.722;2022-08-01T05:25:17;23.50;59.70
8188;DHT22;4135;49.184;9.722;2022-08-01T05:27:47;23.60;59.60
8188;DHT22;4135;49.184;9.722;2022-08-01T05:30:16;23.60;59.90
8188;DHT22;4135;49.184;9.722;2022-08-01T05:32:46;23.60;59.80
8188;DHT22;4135;49.184;9.722;2022-08-01T05:35:15;23.60;59.70
8188;DHT22;4135;49.184;9.722;2022-08-01T05:37:45;23.60;60.10
8188;DHT22;4135;49.184;9.722;2022-08-01T05:40:14;23.60;59.90
8188;DHT22;4135;49.184;9.722;2022-08-01T05:42:44;23.70;59.70
8188;DHT22;4135;49.184;9.722;2022-08-01T05:45:13;23.70;59.30
8188;DHT22;4135;49.184;9.722;2022-08-01T05:47:43;23.70;59.10
8188;DHT22;4135;49.184;9.722;2022-08-01T05:50:12;23.70;59.10
8188;DHT22;4135;49.184;9.722;2022-08-01T05:52:42;23.70;59.10
8188;DHT22;4135;49.184;9.722;2022-08-01T05:55:11;23.70;59.10
8188;DHT22;4135;49.184;9.722;2022-08-01T05:57:41;23.70;59.10
8188;DHT22;4135;49.184;9.722;2022-08-01T06:00:11;23.80;59.30
8188;DHT22;4135;49.184;9.722;2022-08-01T06:02:42;23.80;59.50
8188;DHT22;4135;49.184;9.722;2022-08-01T06:05:12;23.80;59.60
8188;DHT22;4135;49.184;9.722;2022-08-01T06:07:41;23.80;59.40
8188;DHT22;4135;49.184;9.722;2022-08-01T06:10:11;23.80;59.40
8188;DHT22;4135;49.184;9.722;2022-08-01T06:12:40;23.80;59.50
8188;DHT22;4135;49.184;9.722;2022-08-01T06:15:10;23.80;59.50
8188;DHT22;4135;49.184;9.722;2022-08-01T06:17:40;23.80;59.60
8188;DHT22;4135;49.184;9.722;2022-08-01T06:20:10;23.90;59.50
8188;DHT22;4135;49.184;9.722;2022-08-01T06:22:40;23.90;59.40
8188;DHT22;4135;49.184;9.722;2022-08-01T06:25:09;23.90;59.60
8188;DHT22;4135;49.184;9.722;2022-08-01T06:27:39;23.90;59.80
8188;DHT22;4135;49.184;9.722;2022-08-01T06:30:09;23.90;59.60
8188;DHT22;4135;49.184;9.722;2022-08-01T06:32:38;24.00;59.80
8188;DHT22;4135;49.184;9.722;2022-08-01T06:35:08;24.00;59.60
8188;DHT22;4135;49.184;9.722;2022-08-01T06:37:37;24.00;59.60
8188;DHT22;4135;49.184;9.722;2022-08-01T06:40:09;24.00;59.90
8188;DHT22;4135;49.184;9.722;2022-08-01T06:42:38;24.00;59.70
8188;DHT22;4135;49.184;9.722;2022-08-01T06:45:09;24.00;59.60
8188;DHT22;4135;49.184;9.722;2022-08-01T06:47:40;24.00;59.50
8188;DHT22;4135;49.184;9.722;2022-08-01T06:50:10;24.00;59.60
8188;DHT22;4135;49.184;9.722;2022-08-01T06:52:40;24.00;59.50
8188;DHT22;4135;49.184;9.722;2022-08-01T06:55:10;24.10;59.60
8188;DHT22;4135;49.184;9.722;2022-08-01T06:57:50;24.10;59.70
8188;DHT22;4135;49.184;9.722;2022-08-01T07:00:22;24.10;59.70
8188;DHT22;4135;49.184;9.722;2022-08-01T07:02:53;24.10;59.60
8188;DHT22;4135;49.184;9.722;2022-08-01T07:05:23;24.10;59.90
8188;DHT22;4135;49.184;9.722;2022-08-01T07:07:52;24.20;60.30
8188;DHT22;4135;49.184;9.722;2022-08-01T07:10:22;24.20;60.00
8188;DHT22;4135;49.184;9.722;2022-08-01T07:12:52;24.20;59.70
8188;DHT22;4135;49.184;9.722;2022-08-01T07:15:22;24.30;60.00
8188;DHT22;4135;49.184;9.722;2022-08-01T07:17:55;24.20;59.80
8188;DHT22;4135;49.184;9.722;2022-08-01T07:20:26;24.30;60.00
8188;DHT22;4135;49.184;9.722;2022-08-01T07:22:55;24.30;60.00
8188;DHT22;4135;49.184;9.722;2022-08-01T07:25:25;24.30;60.10
8188;DHT22;4135;49.184;9.722;2022-08-01T07:27:54;24.30;60.30
8188;DHT22;4135;49.184;9.722;2022-08-01T07:30:24;24.30;60.10
8188;DHT22;4135;49.184;9.722;2022-08-01T07:32:54;24.30;60.00
8188;DHT22;4135;49.184;9.722;2022-08-01T07:35:23;24.30;59.90
8188;DHT22;4135;49.184;9.722;2022-08-01T07:37:53;24.40;60.10
8188;DHT22;4135;49.184;9.722;2022-08-01T07:40:22;24.40;60.50
8188;DHT22;4135;49.184;9.722;2022-08-01T07:42:52;24.40;60.50
8188;DHT22;4135;49.184;9.722;2022-08-01T07:45:21;24.40;60.70
8188;DHT22;4135;49.184;9.722;2022-08-01T07:47:51;24.40;60.30
8188;DHT22;4135;49.184;9.722;2022-08-01T07:50:20;24.40;60.20
8188;DHT22;4135;49.184;9.722;2022-08-01T07:52:50;24.40;60.70
8188;DHT22;4135;49.184;9.722;2022-08-01T07:55:19;24.40;60.20
8188;DHT22;4135;49.184;9.722;2022-08-01T07:57:49;24.40;60.30
8188;DHT22;4135;49.184;9.722;2022-08-01T08:00:18;24.50;59.90
8188;DHT22;4135;49.184;9.722;2022-08-01T08:02:48;24.50;59.80
8188;DHT22;4135;49.184;9.722;2022-08-01T08:05:18;24.50;59.70
8188;DHT22;4135;49.184;9.722;2022-08-01T08:07:47;24.50;59.60
8188;DHT22;4135;49.184;9.722;2022-08-01T08:10:17;24.50;59.60
8188;DHT22;4135;49.184;9.722;2022-08-01T08:12:46;24.50;59.50
8188;DHT22;4135;49.184;9.722;2022-08-01T08:15:17;24.60;59.50
8188;DHT22;4135;49.184;9.722;2022-08-01T08:17:47;24.60;59.30
8188;DHT22;4135;49.184;9.722;2022-08-01T08:20:16;24.60;59.20
8188;DHT22;4135;49.184;9.722;2022-08-01T08:22:46;24.60;59.10
8188;DHT22;4135;49.184;9.722;2022-08-01T08:25:15;24.60;59.10
8188;DHT22;4135;49.184;9.722;2022-08-01T08:27:45;24.60;59.80
8188;DHT22;4135;49.184;9.722;2022-08-01T08:30:15;24.60;59.10
8188;DHT22;4135;49.184;9.722;2022-08-01T08:32:45;24.60;58.90
8188;DHT22;4135;49.184;9.722;2022-08-01T08:35:14;24.60;58.90
8188;DHT22;4135;49.184;9.722;2022-08-01T08:37:44;24.60;58.90
8188;DHT22;4135;49.184;9.722;2022-08-01T08:40:14;24.70;58.90
8188;DHT22;4135;49.184;9.722;2022-08-01T08:42:45;24.60;58.80
8188;DHT22;4135;49.184;9.722;2022-08-01T08:45:15;24.70;59.10
8188;DHT22;4135;49.184;9.722;2022-08-01T08:47:45;24.70;59.10
8188;DHT22;4135;49.184;9.722;2022-08-01T08:50:16;24.70;59.10
8188;DHT22;4135;49.184;9.722;2022-08-01T08:52:46;24.70;58.80
8188;DHT22;4135;49.184;9.722;2022-08-01T08:55:17;24.80;58.80
8188;DHT22;4135;49.184;9.722;2022-08-01T08:57:47;24.80;58.80
8188;DHT22;4135;49.184;9.722;2022-08-01T09:00:18;25.00;58.80
8188;DHT22;4135;49.184;9.722;2022-08-01T09:02:48;25.00;58.70
8188;DHT22;4135;49.184;9.722;2022-08-01T09:05:24;24.90;58.50
8188;DHT22;4135;49.184;9.722;2022-08-01T09:07:57;24.90;59.10
8188;DHT22;4135;49.184;9.722;2022-08-01T09:10:26;24.90;58.40
8188;DHT22;4135;49.184;9.722;2022-08-01T09:13:05;24.90;58.50
8188;DHT22;4135;49.184;9.722;2022-08-01T09:15:49;24.90;58.60
8188;DHT22;4135;49.184;9.722;2022-08-01T09:18:28;25.00;58.50
8188;DHT22;4135;49.184;9.722;2022-08-01T09:21:19;25.00;58.50
8188;DHT22;4135;49.184;9.722;2022-08-01T09:23:52;25.00;58.50
8188;DHT22;4135;49.184;9.722;2022-08-01T09:26:34;25.00;58.50
8188;DHT22;4135;49.184;9.722;2022-08-01T09:29:06;25.10;58.50
8188;DHT22;4135;49.184;9.722;2022-08-01T09:31:44;25.10;58.40
8188;DHT22;4135;49.184;9.722;2022-08-01T09:34:23;25.10;58.50
8188;DHT22;4135;49.184;9.722;2022-08-01T09:36:55;25.10;58.40
8188;DHT22;4135;49.184;9.722;2022-08-01T09:41:59;25.10;58.50
8188;DHT22;4135;49.184;9.722;2022-08-01T09:44:41;25.10;58.80
8188;DHT22;4135;49.184;9.722;2022-08-01T09:47:12;25.10;58.90
8188;DHT22;4135;49.184;9.722;2022-08-01T09:49:43;25.10;58.90
8188;DHT22;4135;49.184;9.722;2022-08-01T09:52:18;25.10;58.90
8188;DHT22;4135;49.184;9.722;2022-08-01T09:55:07;25.10;58.60
8188;DHT22;4135;49.184;9.722;2022-08-01T09:57:36;25.10;58.60
8188;DHT22;4135;49.184;9.722;2022-08-01T10:00:17;25.20;58.70
8188;DHT22;4135;49.184;9.722;2022-08-01T10:02:47;25.20;58.60
8188;DHT22;4135;49.184;9.722;2022-08-01T10:05:16;25.20;58.90
8188;DHT22;4135;49.184;9.722;2022-08-01T10:10:26;25.40;59.30
8188;DHT22;4135;49.184;9.722;2022-08-01T10:12:58;25.30;59.20
8188;DHT22;4135;49.184;9.722;2022-08-01T10:15:28;25.30;58.90
8188;DHT22;4135;49.184;9.722;2022-08-01T10:18:01;25.30;58.90
8188;DHT22;4135;49.184;9.722;2022-08-01T10:20:33;25.30;58.80
8188;DHT22;4135;49.184;9.722;2022-08-01T10:23:03;25.30;58.70
8188;DHT22;4135;49.184;9.722;2022-08-01T10:25:35;25.40;58.80
8188;DHT22;4135;49.184;9.722;2022-08-01T10:28:13;25.40;58.70
8188;DHT22;4135;49.184;9.722;2022-08-01T10:30:44;25.40;58.60
8188;DHT22;4135;49.184;9.722;2022-08-01T10:33:14;25.40;58.80
8188;DHT22;4135;49.184;9.722;2022-08-01T10:35:45;25.40;58.70
8188;DHT22;4135;49.184;9.722;2022-08-01T10:38:15;25.40;58.80
8188;DHT22;4135;49.184;9.722;2022-08-01T10:40:46;25.40;58.80
8188;DHT22;4135;49.184;9.722;2022-08-01T10:43:16;25.50;58.80
8188;DHT22;4135;49.184;9.722;2022-08-01T10:45:46;25.50;58.70
8188;DHT22;4135;49.184;9.722;2022-08-01T10:48:29;25.50;58.60
8188;DHT22;4135;49.184;9.722;2022-08-01T10:51:02;25.50;58.60
8188;DHT22;4135;49.184;9.722;2022-08-01T10:53:33;25.50;58.60
8188;DHT22;4135;49.184;9.722;2022-08-01T10:56:03;25.50;58.60
8188;DHT22;4135;49.184;9.722;2022-08-01T10:58:37;25.60;58.60
8188;DHT22;4135;49.184;9.722;2022-08-01T11:01:23;25.60;58.50
8188;DHT22;4135;49.184;9.722;2022-08-01T11:04:03;25.60;58.60
8188;DHT22;4135;49.184;9.722;2022-08-01T11:09:05;25.60;58.50
8188;DHT22;4135;49.184;9.722;2022-08-01T11:12:08;25.70;58.40
8188;DHT22;4135;49.184;9.722;2022-08-01T11:17:33;25.70;58.40
8188;DHT22;4135;49.184;9.722;2022-08-01T11:20:15;25.70;58.30
8188;DHT22;4135;49.184;9.722;2022-08-01T11:30:49;25.80;58.30
8188;DHT22;4135;49.184;9.722;2022-08-01T11:39:24;25.80;58.20
8188;DHT22;4135;49.184;9.722;2022-08-01T11:41:35;25.90;58.20
8188;DHT22;4135;49.184;9.722;2022-08-01T11:44:20;25.90;58.20
8188;DHT22;4135;49.184;9.722;2022-08-01T11:46:58;25.90;58.20
8188;DHT22;4135;49.184;9.722;2022-08-01T11:52:18;25.90;58.10
8188;DHT22;4135;49.184;9.722;2022-08-01T11:57:27;25.90;58.10
8188;DHT22;4135;49.184;9.722;2022-08-01T11:59:59;25.90;58.00
8188;DHT22;4135;49.184;9.722;2022-08-01T12:02:34;25.90;58.10
8188;DHT22;4135;49.184;9.722;2022-08-01T12:05:05;25.90;58.10
8188;DHT22;4135;49.184;9.722;2022-08-01T12:07:36;25.90;58.00
8188;DHT22;4135;49.184;9.722;2022-08-01T12:12:42;26.00;58.00
8188;DHT22;4135;49.184;9.722;2022-08-01T12:15:12;26.00;58.60
8188;DHT22;4135;49.184;9.722;2022-08-01T12:17:47;26.00;58.00
8188;DHT22;4135;49.184;9.722;2022-08-01T12:20:22;26.00;57.90
8188;DHT22;4135;49.184;9.722;2022-08-01T12:22:55;26.00;57.90
8188;DHT22;4135;49.184;9.722;2022-08-01T12:25:25;26.10;57.90
8188;DHT22;4135;49.184;9.722;2022-08-01T12:27:54;26.20;58.00
8188;DHT22;4135;49.184;9.722;2022-08-01T12:30:26;26.10;57.80
8188;DHT22;4135;49.184;9.722;2022-08-01T12:32:56;26.20;57.60
8188;DHT22;4135;49.184;9.722;2022-08-01T12:35:28;26.20;57.70
8188;DHT22;4135;49.184;9.722;2022-08-01T12:38:00;26.10;57.70
8188;DHT22;4135;49.184;9.722;2022-08-01T12:40:41;26.10;57.70
8188;DHT22;4135;49.184;9.722;2022-08-01T12:43:16;26.10;57.80
8188;DHT22;4135;49.184;9.722;2022-08-01T12:45:49;26.10;57.70
8188;DHT22;4135;49.184;9.722;2022-08-01T12:48:19;26.20;57.70
8188;DHT22;4135;49.184;9.722;2022-08-01T12:50:49;26.20;57.70
8188;DHT22;4135;49.184;9.722;2022-08-01T12:53:21;26.20;57.70
8188;DHT22;4135;49.184;9.722;2022-08-01T12:55:54;26.20;57.50
8188;DHT22;4135;49.184;9.722;2022-08-01T12:58:23;26.20;57.60
8188;DHT22;4135;49.184;9.722;2022-08-01T13:01:07;26.20;57.50
8188;DHT22;4135;49.184;9.722;2022-08-01T13:03:37;26.30;57.40
8188;DHT22;4135;49.184;9.722;2022-08-01T13:06:12;26.30;57.20
8188;DHT22;4135;49.184;9.722;2022-08-01T13:08:44;26.30;57.20
8188;DHT22;4135;49.184;9.722;2022-08-01T13:11:15;26.30;57.10
8188;DHT22;4135;49.184;9.722;2022-08-01T13:13:48;26.30;57.00
8188;DHT22;4135;49.184;9.722;2022-08-01T13:16:22;26.30;56.90
8188;DHT22;4135;49.184;9.722;2022-08-01T13:18:54;26.40;57.00
8188;DHT22;4135;49.184;9.722;2022-08-01T13:21:27;26.40;56.80
8188;DHT22;4135;49.184;9.722;2022-08-01T13:26:50;26.40;56.70
8188;DHT22;4135;49.184;9.722;2022-08-01T13:29:22;26.40;56.50
8188;DHT22;4135;49.184;9.722;2022-08-01T13:31:58;26.40;56.70
8188;DHT22;4135;49.184;9.722;2022-08-01T13:34:33;26.40;56.60
8188;DHT22;4135;49.184;9.722;2022-08-01T13:37:03;26.40;56.50
8188;DHT22;4135;49.184;9.722;2022-08-01T13:39:32;26.40;56.40
8188;DHT22;4135;49.184;9.722;2022-08-01T13:42:15;26.40;56.20
8188;DHT22;4135;49.184;9.722;2022-08-01T13:44:45;26.50;55.80
8188;DHT22;4135;49.184;9.722;2022-08-01T13:47:15;26.40;56.10
8188;DHT22;4135;49.184;9.722;2022-08-01T13:49:44;26.50;56.20
8188;DHT22;4135;49.184;9.722;2022-08-01T13:52:14;26.50;56.00
8188;DHT22;4135;49.184;9.722;2022-08-01T13:54:43;26.50;56.00
8188;DHT22;4135;49.184;9.722;2022-08-01T13:57:13;26.50;56.20
8188;DHT22;4135;49.184;9.722;2022-08-01T13:59:43;26.50;56.10
8188;DHT22;4135;49.184;9.722;2022-08-01T14:02:13;26.50;56.10
8188;DHT22;4135;49.184;9.722;2022-08-01T14:04:42;26.50;56.00
8188;DHT22;4135;49.184;9.722;2022-08-01T14:07:12;26.60;56.00
8188;DHT22;4135;49.184;9.722;2022-08-01T14:09:42;26.50;56.00
8188;DHT22;4135;49.184;9.722;2022-08-01T14:12:11;26.50;56.00
8188;DHT22;4135;49.184;9.722;2022-08-01T14:14:41;26.50;55.90
8188;DHT22;4135;49.184;9.722;2022-08-01T14:17:10;26.60;56.10
8188;DHT22;4135;49.184;9.722;2022-08-01T14:19:39;26.60;55.90
8188;DHT22;4135;49.184;9.722;2022-08-01T14:22:09;26.60;55.90
8188;DHT22;4135;49.184;9.722;2022-08-01T14:24:38;26.60;55.90
8188;DHT22;4135;49.184;9.722;2022-08-01T14:27:08;26.60;56.00
8188;DHT22;4135;49.184;9.722;2022-08-01T14:29:38;26.60;55.80
8188;DHT22;4135;49.184;9.722;2022-08-01T14:32:07;26.60;55.90
8188;DHT22;4135;49.184;9.722;2022-08-01T14:34:37;26.60;55.70
8188;DHT22;4135;49.184;9.722;2022-08-01T14:37:06;26.60;55.90
8188;DHT22;4135;49.184;9.722;2022-08-01T14:39:36;26.70;56.10
8188;DHT22;4135;49.184;9.722;2022-08-01T14:42:05;26.70;55.90
8188;DHT22;4135;49.184;9.722;2022-08-01T14:44:35;26.70;56.00
8188;DHT22;4135;49.184;9.722;2022-08-01T14:47:04;26.70;56.00
8188;DHT22;4135;49.184;9.722;2022-08-01T14:49:34;26.70;56.00
8188;DHT22;4135;49.184;9.722;2022-08-01T14:52:03;26.70;55.80
8188;DHT22;4135;49.184;9.722;2022-08-01T14:54:33;26.70;55.60
8188;DHT22;4135;49.184;9.722;2022-08-01T14:57:02;26.70;55.70
8188;DHT22;4135;49.184;9.722;2022-08-01T14:59:32;26.70;55.80
8188;DHT22;4135;49.184;9.722;2022-08-01T15:02:02;26.70;55.80
8188;DHT22;4135;49.184;9.722;2022-08-01T15:04:31;26.80;55.80
8188;DHT22;4135;49.184;9.722;2022-08-01T15:07:01;26.80;55.80
8188;DHT22;4135;49.184;9.722;2022-08-01T15:09:31;26.80;55.70
8188;DHT22;4135;49.184;9.722;2022-08-01T15:12:00;26.80;55.60
8188;DHT22;4135;49.184;9.722;2022-08-01T15:14:29;26.80;55.70
8188;DHT22;4135;49.184;9.722;2022-08-01T15:19:52;26.80;55.70
8188;DHT22;4135;49.184;9.722;2022-08-01T15:22:24;26.80;55.50
8188;DHT22;4135;49.184;9.722;2022-08-01T15:24:55;26.80;55.50
8188;DHT22;4135;49.184;9.722;2022-08-01T15:27:26;26.80;55.50
8188;DHT22;4135;49.184;9.722;2022-08-01T15:29:56;26.80;55.60
8188;DHT22;4135;49.184;9.722;2022-08-01T15:32:26;26.80;55.50
8188;DHT22;4135;49.184;9.722;2022-08-01T15:34:55;26.80;55.60
8188;DHT22;4135;49.184;9.722;2022-08-01T15:37:25;26.80;55.60
8188;DHT22;4135;49.184;9.722;2022-08-01T15:39:54;26.90;55.50
8188;DHT22;4135;49.184;9.722;2022-08-01T15:42:24;26.80;55.50
8188;DHT22;4135;49.184;9.722;2022-08-01T15:44:53;26.90;55.70
8188;DHT22;4135;49.184;9.722;2022-08-01T15:47:23;26.90;55.50
8188;DHT22;4135;49.184;9.722;2022-08-01T15:49:52;26.90;56.20
8188;DHT22;4135;49.184;9.722;2022-08-01T15:52:22;26.90;55.40
8188;DHT22;4135;49.184;9.722;2022-08-01T15:54:52;26.90;55.50
8188;DHT22;4135;49.184;9.722;2022-08-01T15:57:21;26.90;55.50
8188;DHT22;4135;49.184;9.722;2022-08-01T15:59:51;26.90;55.50
8188;DHT22;4135;49.184;9.722;2022-08-01T16:02:20;26.90;55.50
8188;DHT22;4135;49.184;9.722;2022-08-01T16:04:50;26.90;55.40
8188;DHT22;4135;49.184;9.722;2022-08-01T16:07:19;26.90;55.40
8188;DHT22;4135;49.184;9.722;2022-08-01T16:09:49;26.90;55.30
8188;DHT22;4135;49.184;9.722;2022-08-01T16:12:18;26.90;55.40
8188;DHT22;4135;49.184;9.722;2022-08-01T16:14:48;26.90;55.30
8188;DHT22;4135;49.184;9.722;2022-08-01T16:17:17;26.90;55.30
8188;DHT22;4135;49.184;9.722;2022-08-01T16:19:47;26.90;55.40
8188;DHT22;4135;49.184;9.722;2022-08-01T16:22:18;26.90;55.30
8188;DHT22;4135;49.184;9.722;2022-08-01T16:24:48;26.90;55.20
8188;DHT22;4135;49.184;9.722;2022-08-01T16:27:18;26.90;55.20
8188;DHT22;4135;49.184;9.722;2022-08-01T16:29:47;26.90;55.10
8188;DHT22;4135;49.184;9.722;2022-08-01T16:32:17;26.90;55.20
8188;DHT22;4135;49.184;9.722;2022-08-01T16:34:46;26.90;55.30
8188;DHT22;4135;49.184;9.722;2022-08-01T16:37:16;26.90;55.20
8188;DHT22;4135;49.184;9.722;2022-08-01T16:39:45;26.90;55.10
8188;DHT22;4135;49.184;9.722;2022-08-01T16:42:15;26.90;55.10
8188;DHT22;4135;49.184;9.722;2022-08-01T16:44:44;26.90;55.10
8188;DHT22;4135;49.184;9.722;2022-08-01T16:47:14;26.90;55.10
8188;DHT22;4135;49.184;9.722;2022-08-01T16:49:43;26.90;55.10
8188;DHT22;4135;49.184;9.722;2022-08-01T16:52:13;26.90;55.10
8188;DHT22;4135;49.184;9.722;2022-08-01T16:54:42;26.90;55.10
8188;DHT22;4135;49.184;9.722;2022-08-01T16:57:12;26.90;55.10
8188;DHT22;4135;49.184;9.722;2022-08-01T16:59:41;26.90;55.10
8188;DHT22;4135;49.184;9.722;2022-08-01T17:02:11;26.90;55.20
8188;DHT22;4135;49.184;9.722;2022-08-01T17:04:40;26.90;55.10
8188;DHT22;4135;49.184;9.722;2022-08-01T17:07:10;26.90;55.00
8188;DHT22;4135;49.184;9.722;2022-08-01T17:09:39;26.90;55.20
8188;DHT22;4135;49.184;9.722;2022-08-01T17:12:09;26.90;55.10
8188;DHT22;4135;49.184;9.722;2022-08-01T17:14:40;26.90;54.80
8188;DHT22;4135;49.184;9.722;2022-08-01T17:17:09;26.90;55.00